Time;durP1;ratioP1;P1;durP2;ratioP2;P2;SDS_P1;SDS_P2;PMS_P1;PMS_P2;Temp;Humidity;BMP_temperature;BMP_pressure;BME280_temperature;BME280_humidity;BME280_pressure;Samples;Min_cycle;Max_cycle;Signal;HPM_P1;HPM_P2
2023/07/15 00:01:59;;;;;;;2.00;0.60;;;21.20;69.90;;;;;;4939215;28;20051;-81
2023/07/15 00:04:29;;;;;;;0.90;0.45;;;21.20;69.90;;;;;;4960096;28;20118;-80
2023/07/15 00:06:59;;;;;;;2.85;0.50;;;21.20;69.80;;;;;;4937260;28;20055;-81
2023/07/15 00:09:29;;;;;;;0.70;0.40;;;21.20;70.30;;;;;;4935158;29;20051;-81
2023/07/15 00:11:57;;;;;;;1.25;0.70;;;21.20;69.70;;;;;;4936867;29;20075;-81
2023/07/15 00:14:25;;;;;;;2.90;0.60;;;21.20;69.60;;;;;;4966837;28;20050;-81
2023/07/15 00:16:53;;;;;;;1.65;0.40;;;21.20;69.50;;;;;;4965432;28;20103;-81
2023/07/15 00:19:22;;;;;;;1.67;0.60;;;21.20;69.40;;;;;;4949338;29;20106;-81
2023/07/15 00:21:50;;;;;;;1.05;0.50;;;21.20;69.20;;;;;;4921831;29;20083;-81
2023/07/15 00:24:17;;;;;;;0.88;0.40;;;21.10;69.10;;;;;;4978435;28;20050;-81
2023/07/15 00:26:47;;;;;;;1.23;0.50;;;21.10;69.10;;;;;;4950154;29;20137;-81
2023/07/15 00:29:16;;;;;;;1.77;0.40;;;21.10;68.90;;;;;;4956869;29;20552;-82
2023/07/15 00:31:43;;;;;;;1.50;0.40;;;21.10;68.80;;;;;;4958700;28;20066;-82
2023/07/15 00:34:11;;;;;;;1.17;0.43;;;21.10;68.80;;;;;;4945262;29;20051;-82
2023/07/15 00:36:41;;;;;;;1.80;0.50;;;21.10;68.60;;;;;;4967350;28;20142;-82
2023/07/15 00:39:09;;;;;;;0.85;0.35;;;21.10;68.50;;;;;;4975963;28;20043;-81
2023/07/15 00:41:36;;;;;;;1.48;0.40;;;21.10;68.40;;;;;;4967247;28;20047;-81
2023/07/15 00:44:06;;;;;;;1.50;0.40;;;21.10;68.40;;;;;;4940921;28;20053;-81
2023/07/15 00:47:00;;;;;;;1.08;0.40;;;21.10;68.30;;;;;;4956821;28;20108;-81
2023/07/15 00:49:31;;;;;;;1.17;0.40;;;21.10;68.10;;;;;;4962208;28;20054;-81
2023/07/15 00:52:12;;;;;;;0.77;0.30;;;21.10;68.30;;;;;;4964101;28;20043;-82
2023/07/15 00:54:41;;;;;;;1.48;0.40;;;21.10;68.10;;;;;;4952813;28;20067;-81
2023/07/15 00:57:11;;;;;;;0.88;0.30;;;21.00;68.10;;;;;;4955917;28;20055;-81
2023/07/15 00:59:39;;;;;;;3.25;0.52;;;21.10;68.00;;;;;;4957835;28;20043;-81
2023/07/15 01:02:11;;;;;;;0.88;0.40;;;21.10;67.90;;;;;;4945457;29;20051;-80
2023/07/15 01:04:39;;;;;;;1.75;0.50;;;21.10;67.70;;;;;;4957498;28;20059;-81
2023/07/15 01:07:07;;;;;;;0.88;0.40;;;21.20;67.60;;;;;;4955018;28;20133;-81
2023/07/15 01:09:36;;;;;;;1.10;0.40;;;21.20;67.50;;;;;;4957533;28;20377;-81
2023/07/15 01:12:06;;;;;;;1.17;0.32;;;21.20;67.50;;;;;;4943313;29;20043;-81
2023/07/15 01:14:34;;;;;;;1.40;0.32;;;21.20;67.30;;;;;;4954925;29;20070;-81
2023/07/15 01:17:02;;;;;;;1.10;0.40;;;21.30;67.20;;;;;;4940934;28;20059;-81
2023/07/15 01:19:30;;;;;;;1.27;0.45;;;21.30;67.00;;;;;;4958881;28;20098;-81
2023/07/15 01:21:58;;;;;;;1.00;0.50;;;21.40;66.80;;;;;;4920363;29;20055;-80
2023/07/15 01:24:26;;;;;;;1.40;0.50;;;21.50;66.50;;;;;;4956943;28;20110;-80
2023/07/15 01:27:07;;;;;;;1.35;0.50;;;21.50;66.30;;;;;;4939797;29;20361;-80
2023/07/15 01:29:34;;;;;;;1.42;0.50;;;21.60;66.10;;;;;;4939337;29;20047;-80
2023/07/15 01:32:01;;;;;;;1.13;0.40;;;21.50;66.00;;;;;;4935958;29;20059;-80
2023/07/15 01:34:30;;;;;;;1.02;0.50;;;21.60;66.00;;;;;;4935473;29;20123;-80
2023/07/15 01:36:58;;;;;;;0.90;0.40;;;21.60;65.90;;;;;;4919636;29;20587;-81
2023/07/15 01:39:25;;;;;;;1.17;0.40;;;21.60;65.90;;;;;;4954397;28;20062;-80
2023/07/15 01:41:52;;;;;;;1.00;0.50;;;21.70;65.90;;;;;;4941970;28;20507;-80
2023/07/15 01:44:20;;;;;;;0.98;0.30;;;21.70;65.80;;;;;;4939446;29;20416;-81
2023/07/15 01:46:49;;;;;;;1.88;0.40;;;21.70;65.80;;;;;;4928236;29;20389;-81
2023/07/15 01:49:16;;;;;;;1.92;0.50;;;21.70;65.60;;;;;;4951194;28;20039;-81
2023/07/15 01:51:43;;;;;;;0.85;0.50;;;21.70;65.50;;;;;;4956528;28;20047;-81
2023/07/15 01:54:10;;;;;;;1.20;0.43;;;21.70;65.50;;;;;;4965061;28;20042;-81
2023/07/15 01:56:41;;;;;;;1.15;0.30;;;21.70;65.50;;;;;;4940161;28;20044;-81
2023/07/15 01:59:10;;;;;;;0.95;0.43;;;21.60;65.70;;;;;;4943055;29;20075;-80
2023/07/15 02:01:40;;;;;;;1.88;0.40;;;21.50;65.90;;;;;;4947366;29;20094;-81
2023/07/15 02:04:08;;;;;;;1.17;0.55;;;21.40;66.20;;;;;;4966321;28;20055;-80
2023/07/15 02:06:36;;;;;;;1.45;0.52;;;21.30;66.30;;;;;;4927382;28;20058;-81
2023/07/15 02:09:07;;;;;;;1.02;0.40;;;21.20;66.30;;;;;;4942264;29;20067;-90
2023/07/15 02:11:35;;;;;;;2.42;0.50;;;21.20;66.40;;;;;;4925407;29;20051;-89
2023/07/15 02:14:02;;;;;;;1.08;0.50;;;21.10;66.50;;;;;;4924182;29;20472;-90
2023/07/15 02:16:30;;;;;;;1.00;0.45;;;21.00;66.50;;;;;;4955307;28;20207;-90
2023/07/15 02:18:58;;;;;;;0.93;0.40;;;21.00;66.50;;;;;;4919193;28;20050;-90
2023/07/15 02:21:26;;;;;;;0.88;0.40;;;21.00;66.60;;;;;;4943409;29;20057;-89
2023/07/15 02:23:53;;;;;;;1.08;0.40;;;21.00;66.60;;;;;;4931416;29;20044;-89
2023/07/15 02:26:20;;;;;;;1.10;0.43;;;20.90;66.60;;;;;;4939351;28;20056;-89
2023/07/15 02:28:48;;;;;;;0.60;0.30;;;20.90;66.60;;;;;;4974926;28;20066;-90
2023/07/15 02:31:15;;;;;;;1.83;0.40;;;20.80;66.60;;;;;;4936630;28;20047;-90
2023/07/15 02:33:42;;;;;;;0.80;0.38;;;20.80;66.60;;;;;;4936892;29;20043;-90
2023/07/15 02:36:10;;;;;;;0.70;0.30;;;20.80;66.50;;;;;;4955165;29;20078;-91
2023/07/15 02:38:37;;;;;;;0.73;0.30;;;20.80;66.40;;;;;;4946258;28;20047;-90
2023/07/15 02:41:04;;;;;;;1.42;0.30;;;20.80;66.30;;;;;;4955290;28;20051;-89
2023/07/15 02:43:31;;;;;;;1.02;0.40;;;20.80;66.20;;;;;;4939400;29;20055;-89
2023/07/15 02:45:59;;;;;;;0.90;0.20;;;20.80;66.90;;;;;;4939195;29;20081;-90
2023/07/15 02:48:26;;;;;;;0.90;0.30;;;20.80;66.40;;;;;;4911504;29;20051;-89
2023/07/15 02:50:58;;;;;;;0.93;0.47;;;20.70;66.60;;;;;;4920469;29;20052;-88
2023/07/15 02:53:28;;;;;;;0.63;0.30;;;20.60;66.70;;;;;;4951914;29;20111;-89
2023/07/15 02:55:58;;;;;;;0.60;0.20;;;20.60;66.80;;;;;;4952040;28;20062;-89
2023/07/15 02:58:25;;;;;;;0.98;0.40;;;20.60;66.90;;;;;;4930535;28;20447;-89
2023/07/15 03:00:52;;;;;;;0.70;0.28;;;20.60;66.80;;;;;;4956978;28;20051;-90
2023/07/15 03:03:20;;;;;;;0.60;0.30;;;20.60;66.80;;;;;;4955053;29;20078;-89
2023/07/15 03:05:48;;;;;;;1.10;0.30;;;20.50;66.90;;;;;;4938966;29;20105;-89
2023/07/15 03:08:15;;;;;;;0.70;0.30;;;20.50;67.00;;;;;;4938819;29;20067;-90
2023/07/15 03:10:46;;;;;;;0.90;0.40;;;20.40;67.20;;;;;;4939257;29;20102;-89
2023/07/15 03:13:13;;;;;;;1.00;0.40;;;20.40;67.40;;;;;;4964929;28;20058;-88
2023/07/15 03:15:41;;;;;;;0.82;0.40;;;20.30;67.60;;;;;;4938764;29;20147;-89
2023/07/15 03:18:09;;;;;;;1.00;0.38;;;20.20;67.60;;;;;;4956931;28;20479;-89
2023/07/15 03:20:36;;;;;;;1.10;0.30;;;20.20;67.70;;;;;;4964213;28;20101;-90
2023/07/15 03:23:04;;;;;;;0.80;0.30;;;20.20;67.80;;;;;;4962079;28;20138;-90
2023/07/15 03:25:31;;;;;;;0.85;0.40;;;20.10;67.90;;;;;;4932074;28;20105;-89
2023/07/15 03:27:58;;;;;;;1.13;0.30;;;20.10;68.10;;;;;;4926909;28;20150;-90
2023/07/15 03:30:26;;;;;;;0.50;0.30;;;20.00;68.20;;;;;;4942013;28;20047;-90
2023/07/15 03:32:56;;;;;;;0.82;0.50;;;20.00;68.40;;;;;;4947279;29;20059;-88
2023/07/15 03:35:24;;;;;;;0.70;0.22;;;19.90;68.60;;;;;;4976034;28;20066;-89
2023/07/15 03:37:51;;;;;;;0.93;0.45;;;19.90;68.80;;;;;;4960694;28;20570;-89
2023/07/15 03:40:19;;;;;;;1.65;0.50;;;19.80;69.00;;;;;;4943908;28;20518;-89
2023/07/15 03:42:46;;;;;;;1.45;0.43;;;19.80;69.20;;;;;;4962259;28;20074;-89
2023/07/15 03:45:13;;;;;;;1.77;0.32;;;19.70;69.40;;;;;;4961056;28;20121;-89
2023/07/15 03:47:40;;;;;;;2.00;0.40;;;19.70;69.60;;;;;;4946528;28;20050;-89
2023/07/15 03:50:09;;;;;;;1.10;0.40;;;19.60;69.70;;;;;;4949538;28;20038;-89
2023/07/15 03:52:37;;;;;;;0.80;0.40;;;19.60;69.90;;;;;;4976128;28;20055;-89
2023/07/15 03:55:05;;;;;;;0.77;0.40;;;19.60;70.00;;;;;;4943409;29;20105;-89
2023/07/15 03:57:33;;;;;;;0.70;0.40;;;19.50;70.00;;;;;;4956538;28;20066;-90
2023/07/15 04:00:00;;;;;;;2.35;0.32;;;19.50;70.10;;;;;;4963809;28;20070;-90
2023/07/15 04:02:39;;;;;;;0.68;0.30;;;19.50;70.20;;;;;;4972514;28;20042;-91
2023/07/15 04:05:07;;;;;;;0.93;0.40;;;19.40;70.30;;;;;;4948801;28;20054;-90
2023/07/15 04:07:34;;;;;;;0.63;0.38;;;19.40;70.40;;;;;;4971170;28;20039;-90
2023/07/15 04:10:01;;;;;;;1.00;0.35;;;19.40;70.60;;;;;;4940182;28;20061;-90
2023/07/15 04:12:28;;;;;;;0.70;0.50;;;19.40;70.90;;;;;;4960135;28;20121;-90
2023/07/15 04:14:56;;;;;;;1.30;0.40;;;19.40;71.00;;;;;;4961111;28;20069;-91
2023/07/15 04:17:23;;;;;;;0.75;0.40;;;19.30;71.10;;;;;;4944591;28;20097;-90
2023/07/15 04:19:50;;;;;;;1.10;0.40;;;19.30;71.30;;;;;;4974678;28;20039;-90
2023/07/15 04:22:17;;;;;;;1.10;0.30;;;19.30;71.40;;;;;;4944727;28;20047;-91
2023/07/15 04:24:45;;;;;;;1.77;0.55;;;19.40;71.60;;;;;;4944668;28;20043;-91
2023/07/15 04:27:15;;;;;;;1.67;0.35;;;19.30;71.60;;;;;;4940087;28;20098;-90
2023/07/15 04:29:42;;;;;;;1.50;0.50;;;19.30;71.80;;;;;;4944845;28;20043;-90
2023/07/15 04:32:09;;;;;;;1.08;0.40;;;19.30;71.90;;;;;;4947662;28;20043;-90
2023/07/15 04:34:36;;;;;;;1.85;0.50;;;19.30;72.10;;;;;;4931774;28;20081;-89
2023/07/15 04:37:03;;;;;;;0.80;0.50;;;19.30;72.30;;;;;;4979384;28;20475;-89
2023/07/15 04:39:30;;;;;;;0.77;0.43;;;19.30;72.40;;;;;;4937733;29;20381;-89
2023/07/15 04:41:57;;;;;;;0.80;0.45;;;19.30;72.50;;;;;;4963878;28;20117;-89
2023/07/15 04:44:24;;;;;;;1.13;0.45;;;19.30;72.70;;;;;;4973975;28;20050;-90
2023/07/15 04:46:52;;;;;;;1.08;0.40;;;19.30;72.70;;;;;;4941282;29;20054;-90
2023/07/15 04:49:19;;;;;;;0.80;0.40;;;19.30;72.90;;;;;;4944331;28;20046;-90
2023/07/15 04:51:46;;;;;;;1.20;0.40;;;19.40;73.00;;;;;;4928991;28;20493;-89
2023/07/15 04:54:13;;;;;;;1.08;0.30;;;19.40;73.10;;;;;;4931059;28;20047;-90
2023/07/15 04:56:40;;;;;;;1.55;0.50;;;19.40;73.20;;;;;;4951061;28;20062;-80
2023/07/15 04:59:08;;;;;;;1.10;0.52;;;19.50;73.30;;;;;;4953776;28;20055;-80
2023/07/15 05:01:35;;;;;;;5.00;2.42;;;19.50;73.30;;;;;;4955259;28;20050;-81
2023/07/15 05:04:06;;;;;;;2.00;1.20;;;19.50;73.30;;;;;;4939410;29;20185;-81
2023/07/15 05:06:32;;;;;;;2.00;1.05;;;19.60;73.40;;;;;;4975814;28;20043;-81
2023/07/15 05:09:00;;;;;;;2.38;1.23;;;19.60;73.40;;;;;;4930777;29;20050;-81
2023/07/15 05:11:27;;;;;;;1.52;0.70;;;19.70;73.40;;;;;;4952798;29;20522;-81
2023/07/15 05:13:54;;;;;;;2.55;0.80;;;19.70;73.50;;;;;;4940350;29;20043;-90
2023/07/15 05:16:22;;;;;;;2.60;1.02;;;19.80;73.50;;;;;;4940235;29;20058;-90
2023/07/15 05:18:49;;;;;;;1.33;0.60;;;19.90;73.50;;;;;;4965948;28;20061;-90
2023/07/15 05:21:16;;;;;;;1.10;0.50;;;19.90;73.50;;;;;;4943165;28;20051;-81
2023/07/15 05:23:44;;;;;;;1.27;0.50;;;20.00;73.40;;;;;;4935020;29;20047;-81
2023/07/15 05:26:13;;;;;;;1.60;0.60;;;20.10;73.30;;;;;;4951816;28;20070;-81
2023/07/15 05:28:40;;;;;;;1.85;0.30;;;20.20;73.10;;;;;;4975078;28;20046;-81
2023/07/15 05:31:07;;;;;;;2.03;0.40;;;20.30;73.10;;;;;;4958050;28;20097;-81
2023/07/15 05:33:34;;;;;;;0.68;0.40;;;20.30;73.00;;;;;;4945210;28;20050;-81
2023/07/15 05:36:02;;;;;;;0.73;0.35;;;20.40;72.90;;;;;;4935213;28;20043;-81
2023/07/15 05:38:29;;;;;;;0.95;0.50;;;20.50;72.80;;;;;;4933086;28;20061;-81
2023/07/15 05:40:56;;;;;;;1.02;0.40;;;20.60;72.70;;;;;;4926286;28;20129;-80
2023/07/15 05:43:23;;;;;;;1.45;0.40;;;20.70;72.50;;;;;;4948635;28;20055;-80
2023/07/15 05:45:53;;;;;;;1.05;0.50;;;20.80;72.20;;;;;;4947899;28;20050;-81
2023/07/15 05:48:20;;;;;;;1.10;0.40;;;20.90;72.00;;;;;;4925252;28;20050;-81
2023/07/15 05:50:47;;;;;;;1.33;0.40;;;21.10;71.80;;;;;;4975210;28;20120;-81
2023/07/15 05:53:14;;;;;;;0.90;0.40;;;21.20;71.60;;;;;;4946836;28;20391;-82
2023/07/15 05:55:41;;;;;;;1.00;0.50;;;21.30;71.30;;;;;;4941002;28;20043;-81
2023/07/15 05:58:11;;;;;;;1.05;0.40;;;21.50;71.20;;;;;;4957207;28;20146;-81
2023/07/15 06:00:40;;;;;;;0.45;0.20;;;21.50;71.00;;;;;;4939045;29;20082;-82
2023/07/15 06:03:08;;;;;;;1.00;0.38;;;21.60;70.90;;;;;;4995251;28;20050;-81
2023/07/15 06:05:37;;;;;;;0.77;0.32;;;21.70;70.80;;;;;;4976985;28;20341;-81
2023/07/15 06:08:06;;;;;;;0.77;0.28;;;21.90;70.70;;;;;;4948626;28;20046;-81
2023/07/15 06:10:33;;;;;;;1.27;0.30;;;21.90;70.30;;;;;;4961396;28;20039;-81
2023/07/15 06:13:01;;;;;;;1.30;0.50;;;22.10;70.10;;;;;;4960647;28;20047;-80
2023/07/15 06:15:28;;;;;;;1.35;0.50;;;22.20;69.80;;;;;;4938659;29;20139;-80
2023/07/15 06:17:57;;;;;;;0.82;0.35;;;22.30;69.60;;;;;;4967067;28;20518;-80
2023/07/15 06:20:24;;;;;;;0.98;0.35;;;22.40;69.40;;;;;;4969383;28;20104;-80
2023/07/15 06:22:51;;;;;;;2.65;0.40;;;22.50;69.30;;;;;;4946138;28;20069;-81
2023/07/15 06:25:18;;;;;;;1.45;0.50;;;22.50;69.10;;;;;;4957688;28;20086;-80
2023/07/15 06:27:45;;;;;;;0.50;0.40;;;22.60;69.10;;;;;;4929935;29;20043;-90
2023/07/15 06:30:13;;;;;;;0.55;0.32;;;22.60;68.90;;;;;;4972678;28;20050;-90
2023/07/15 06:32:42;;;;;;;1.27;0.55;;;22.70;68.70;;;;;;4978401;28;20097;-90
2023/07/15 06:35:09;;;;;;;1.20;0.50;;;22.80;68.50;;;;;;4958884;28;20043;-89
2023/07/15 06:37:36;;;;;;;2.92;0.63;;;22.90;68.20;;;;;;4960453;28;20056;-89
2023/07/15 06:40:04;;;;;;;2.10;0.50;;;23.00;67.90;;;;;;4939165;28;20054;-89
2023/07/15 06:42:31;;;;;;;1.10;0.57;;;23.00;67.70;;;;;;4958968;28;20508;-89
2023/07/15 06:44:58;;;;;;;1.48;0.57;;;23.20;67.70;;;;;;4935836;28;20085;-89
2023/07/15 06:47:25;;;;;;;1.15;0.50;;;23.30;67.50;;;;;;4954109;28;20069;-89
2023/07/15 06:49:53;;;;;;;1.33;0.52;;;23.30;67.30;;;;;;4958650;28;20034;-89
2023/07/15 06:52:20;;;;;;;1.10;0.43;;;23.50;67.20;;;;;;4947881;28;20138;-90
2023/07/15 06:54:47;;;;;;;2.05;0.70;;;23.50;67.20;;;;;;4955009;28;20183;-89
2023/07/15 06:57:14;;;;;;;1.25;0.55;;;23.50;67.80;;;;;;4954641;28;20050;-90
2023/07/15 06:59:41;;;;;;;0.80;0.40;;;23.40;67.40;;;;;;4945412;28;20130;-89
2023/07/15 07:02:08;;;;;;;1.15;0.40;;;23.50;67.50;;;;;;4944467;28;20042;-89
2023/07/15 07:04:35;;;;;;;1.35;0.60;;;23.70;67.40;;;;;;4949020;28;20054;-89
2023/07/15 07:07:03;;;;;;;1.63;0.47;;;23.80;67.40;;;;;;4951977;28;20077;-90
2023/07/15 07:09:30;;;;;;;1.10;0.40;;;23.90;67.30;;;;;;4942210;28;20383;-90
2023/07/15 07:11:58;;;;;;;1.25;0.60;;;24.00;67.30;;;;;;4926320;28;20042;-90
2023/07/15 07:14:27;;;;;;;2.58;0.60;;;24.10;67.30;;;;;;4937666;28;20454;-89
2023/07/15 07:16:58;;;;;;;0.82;0.50;;;24.20;67.20;;;;;;4961651;28;20453;-90
2023/07/15 07:19:25;;;;;;;0.63;0.40;;;24.40;67.30;;;;;;4947711;28;20051;-81
2023/07/15 07:21:52;;;;;;;0.75;0.30;;;24.40;67.30;;;;;;4938729;29;20059;-82
2023/07/15 07:24:19;;;;;;;0.82;0.40;;;24.40;67.50;;;;;;4952698;28;20042;-81
2023/07/15 07:26:47;;;;;;;0.80;0.50;;;24.40;67.60;;;;;;4934859;29;20099;-81
2023/07/15 07:29:15;;;;;;;1.05;0.60;;;24.40;67.60;;;;;;4933996;28;20050;-80
2023/07/15 07:31:42;;;;;;;1.02;0.50;;;24.50;67.70;;;;;;4958134;28;20081;-81
2023/07/15 07:34:09;;;;;;;1.58;0.43;;;24.50;67.70;;;;;;4977705;28;20057;-80
2023/07/15 07:36:36;;;;;;;0.80;0.50;;;24.60;67.40;;;;;;4975373;28;20145;-80
2023/07/15 07:39:03;;;;;;;1.27;0.43;;;24.70;67.40;;;;;;4959971;28;20042;-81
2023/07/15 07:41:30;;;;;;;2.58;0.43;;;24.90;67.20;;;;;;4928381;28;20051;-81
2023/07/15 07:43:57;;;;;;;1.88;0.70;;;25.00;67.20;;;;;;4974802;28;20050;-80
2023/07/15 07:46:24;;;;;;;0.52;0.40;;;25.10;67.00;;;;;;4948140;28;20503;-81
2023/07/15 07:48:51;;;;;;;1.40;0.70;;;25.20;66.80;;;;;;4968221;28;20050;-81
2023/07/15 07:51:18;;;;;;;0.80;0.40;;;25.30;66.60;;;;;;4956737;28;20046;-81
2023/07/15 07:53:45;;;;;;;1.73;0.70;;;25.30;66.50;;;;;;4934109;28;20057;-81
2023/07/15 07:56:13;;;;;;;1.45;0.50;;;25.30;66.50;;;;;;4934063;28;20121;-80
2023/07/15 07:58:40;;;;;;;2.95;0.80;;;25.40;66.40;;;;;;4952710;28;20050;-81
2023/07/15 08:01:08;;;;;;;1.60;0.68;;;25.60;66.00;;;;;;4967736;28;20062;-82
2023/07/15 08:03:35;;;;;;;1.23;0.55;;;25.90;65.70;;;;;;4952096;28;20073;-83
2023/07/15 08:06:04;;;;;;;1.35;0.57;;;26.10;65.10;;;;;;4963599;28;20057;-80
2023/07/15 08:08:31;;;;;;;1.02;0.47;;;26.30;64.70;;;;;;4951049;28;20117;-81
2023/07/15 08:10:58;;;;;;;1.38;0.50;;;26.30;64.50;;;;;;4936831;28;20104;-79
2023/07/15 08:13:28;;;;;;;1.13;0.52;;;26.40;64.60;;;;;;4951020;28;20495;-79
2023/07/15 08:16:01;;;;;;;1.88;0.40;;;26.40;64.20;;;;;;4956372;28;20513;-85
2023/07/15 08:18:28;;;;;;;0.90;0.40;;;26.40;64.20;;;;;;4959610;28;20459;-83
2023/07/15 08:20:56;;;;;;;1.33;0.40;;;26.50;64.20;;;;;;4959443;28;20102;-82
2023/07/15 08:23:26;;;;;;;2.58;0.52;;;26.70;63.80;;;;;;4932105;28;20060;-85
2023/07/15 08:25:54;;;;;;;2.10;0.60;;;26.60;63.30;;;;;;4967896;28;20047;-81
2023/07/15 08:28:22;;;;;;;0.77;0.43;;;26.60;63.70;;;;;;4943587;28;20138;-81
2023/07/15 08:30:49;;;;;;;1.73;0.55;;;26.50;63.90;;;;;;4949588;28;20082;-79
2023/07/15 08:33:16;;;;;;;0.90;0.50;;;26.40;63.90;;;;;;4974987;28;20042;-81
2023/07/15 08:35:44;;;;;;;1.05;0.40;;;26.30;63.80;;;;;;4942848;28;20138;-80
2023/07/15 08:38:12;;;;;;;1.40;0.60;;;26.20;64.00;;;;;;4927716;28;20046;-81
2023/07/15 08:40:43;;;;;;;1.40;0.52;;;26.10;64.20;;;;;;4958775;28;20145;-79
2023/07/15 08:43:10;;;;;;;0.70;0.40;;;26.10;64.30;;;;;;4959207;28;20049;-80
2023/07/15 08:45:37;;;;;;;0.98;0.50;;;26.10;64.40;;;;;;4945490;28;20388;-77
2023/07/15 08:48:06;;;;;;;1.48;0.40;;;26.20;64.30;;;;;;4965465;28;20054;-79
2023/07/15 08:50:34;;;;;;;1.10;0.40;;;26.40;64.00;;;;;;4983307;28;20042;-82
2023/07/15 08:53:03;;;;;;;2.58;0.40;;;26.50;63.90;;;;;;4965078;28;20046;-80
2023/07/15 08:55:30;;;;;;;1.35;0.43;;;26.50;63.80;;;;;;4963490;28;20039;-79
2023/07/15 08:57:59;;;;;;;1.38;0.40;;;26.50;63.90;;;;;;4953982;29;20408;-77
2023/07/15 09:00:26;;;;;;;0.73;0.30;;;26.60;63.60;;;;;;4966791;28;20097;-77
2023/07/15 09:02:53;;;;;;;0.88;0.60;;;26.90;63.40;;;;;;4929264;28;20130;-77
2023/07/15 09:05:21;;;;;;;0.80;0.30;;;26.90;63.00;;;;;;4983120;28;20064;-79
2023/07/15 09:07:53;;;;;;;0.40;0.25;;;27.00;63.10;;;;;;4944989;28;20098;-79
2023/07/15 09:10:21;;;;;;;0.50;0.25;;;27.00;63.20;;;;;;4958585;28;20050;-82
2023/07/15 09:12:53;;;;;;;0.88;0.40;;;27.00;63.30;;;;;;4940571;28;20108;-81
2023/07/15 09:15:20;;;;;;;1.05;0.38;;;26.90;63.20;;;;;;4942414;28;20046;-82
2023/07/15 09:17:57;;;;;;;0.50;0.20;;;26.90;63.30;;;;;;4929176;28;20121;-79
2023/07/15 09:20:26;;;;;;;0.93;0.30;;;26.90;63.30;;;;;;4938073;28;20046;-79
2023/07/15 09:22:56;;;;;;;0.68;0.20;;;27.00;63.20;;;;;;4964128;28;20101;-77
2023/07/15 09:25:24;;;;;;;0.75;0.30;;;27.00;62.90;;;;;;4975648;28;20051;-81
2023/07/15 09:27:53;;;;;;;0.47;0.20;;;27.00;63.60;;;;;;4944299;28;20042;-82
2023/07/15 09:30:20;;;;;;;0.93;0.30;;;26.90;62.90;;;;;;4945666;28;20046;-82
2023/07/15 09:32:47;;;;;;;0.55;0.30;;;26.90;62.70;;;;;;4942248;29;20039;-81
2023/07/15 09:35:15;;;;;;;1.17;0.30;;;26.80;62.80;;;;;;4937191;29;20047;-77
2023/07/15 09:37:46;;;;;;;0.70;0.40;;;26.70;63.10;;;;;;4958086;28;20047;-81
2023/07/15 09:40:13;;;;;;;0.55;0.20;;;26.50;63.30;;;;;;4938869;28;20488;-81
2023/07/15 09:42:54;;;;;;;1.00;0.32;;;26.30;63.70;;;;;;4958056;28;20050;-79
2023/07/15 09:45:36;;;;;;;1.17;0.40;;;26.10;63.90;;;;;;4929530;29;20141;-80
2023/07/15 09:48:08;;;;;;;0.80;0.30;;;25.80;64.40;;;;;;4945738;28;20447;-80
2023/07/15 09:50:37;;;;;;;1.25;0.30;;;25.60;64.80;;;;;;4969268;28;20042;-81
2023/07/15 09:53:05;;;;;;;0.85;0.50;;;25.50;65.00;;;;;;4961308;28;20085;-89
2023/07/15 09:55:34;;;;;;;1.95;0.40;;;25.60;65.10;;;;;;4977498;28;20054;-80
2023/07/15 09:58:11;;;;;;;1.73;0.50;;;25.60;64.80;;;;;;4969830;28;20076;-86
2023/07/15 10:00:47;;;;;;;1.15;0.38;;;25.70;64.70;;;;;;4935832;28;20117;-81
2023/07/15 10:03:22;;;;;;;0.95;0.30;;;25.80;64.40;;;;;;4961928;28;20213;-86
2023/07/15 10:05:51;;;;;;;4.07;1.40;;;26.10;64.00;;;;;;4944350;29;20047;-81
2023/07/15 10:08:18;;;;;;;2.03;0.63;;;26.30;63.60;;;;;;4931271;29;20096;-82
2023/07/15 10:10:47;;;;;;;2.13;0.50;;;26.50;63.20;;;;;;4971020;28;20051;-83
2023/07/15 10:13:15;;;;;;;1.48;0.30;;;26.60;63.20;;;;;;4959986;28;20035;-83
2023/07/15 10:15:44;;;;;;;1.20;0.50;;;26.60;63.00;;;;;;4974405;28;20571;-82
2023/07/15 10:18:17;;;;;;;1.25;0.43;;;26.50;63.10;;;;;;4957033;28;20455;-82
2023/07/15 10:20:55;;;;;;;1.83;0.60;;;26.30;63.50;;;;;;4946873;29;20047;-83
2023/07/15 10:23:31;;;;;;;0.80;0.40;;;26.10;63.90;;;;;;4957961;28;20078;-84
2023/07/15 10:25:58;;;;;;;1.52;0.55;;;26.00;64.10;;;;;;4957236;28;20054;-82
2023/07/15 10:28:30;;;;;;;1.10;0.40;;;25.80;64.30;;;;;;4960816;28;20518;-82
2023/07/15 10:31:12;;;;;;;2.50;0.47;;;25.80;64.20;;;;;;4949470;28;20046;-82
2023/07/15 10:34:04;;;;;;;0.95;0.32;;;25.80;64.60;;;;;;4952415;29;20043;-83
2023/07/15 10:36:39;;;;;;;1.08;0.50;;;25.70;64.10;;;;;;4975280;28;20046;-83
2023/07/15 10:39:16;;;;;;;1.23;0.50;;;25.60;64.10;;;;;;4948061;28;20053;-78
2023/07/15 10:41:45;;;;;;;1.02;0.40;;;25.70;64.30;;;;;;4958662;28;20043;-79
2023/07/15 10:44:23;;;;;;;2.13;0.40;;;25.70;64.30;;;;;;4957951;28;20491;-78
2023/07/15 10:46:59;;;;;;;0.68;0.40;;;25.70;64.20;;;;;;4945718;29;20043;-79
2023/07/15 10:49:26;;;;;;;1.25;0.45;;;25.70;64.20;;;;;;4950709;28;20079;-78
2023/07/15 10:51:57;;;;;;;0.95;0.35;;;25.70;64.30;;;;;;4948087;28;20079;-78
2023/07/15 10:54:26;;;;;;;0.90;0.40;;;25.70;64.40;;;;;;4966216;28;20071;-78
2023/07/15 10:56:54;;;;;;;1.13;0.50;;;25.60;64.60;;;;;;4967837;28;20224;-78
2023/07/15 10:59:34;;;;;;;1.63;0.40;;;25.50;64.80;;;;;;4964248;28;20058;-78
2023/07/15 11:02:02;;;;;;;2.60;0.82;;;25.40;65.00;;;;;;4973849;28;20038;-79
2023/07/15 11:04:30;;;;;;;1.33;0.40;;;25.30;65.40;;;;;;4940659;28;20392;-78
2023/07/15 11:07:06;;;;;;;1.73;0.40;;;25.20;65.60;;;;;;4956670;28;20043;-79
2023/07/15 11:09:38;;;;;;;1.17;0.45;;;25.30;65.90;;;;;;4927005;28;20089;-81
2023/07/15 11:12:11;;;;;;;1.13;0.47;;;25.30;66.20;;;;;;4947495;28;20150;-80
2023/07/15 11:14:42;;;;;;;1.45;0.50;;;25.30;66.20;;;;;;4955382;28;20043;-78
2023/07/15 11:17:14;;;;;;;0.88;0.50;;;25.40;65.90;;;;;;4953225;28;20134;-78
2023/07/15 11:19:45;;;;;;;1.00;0.50;;;25.60;65.50;;;;;;4954925;28;20040;-78
2023/07/15 11:22:15;;;;;;;1.83;0.57;;;25.70;65.30;;;;;;4927261;29;20051;-79
2023/07/15 11:24:42;;;;;;;1.02;0.40;;;25.70;65.10;;;;;;4916935;29;20055;-78
2023/07/15 11:27:09;;;;;;;1.02;0.40;;;25.70;64.90;;;;;;4953495;29;20050;-78
2023/07/15 11:29:36;;;;;;;1.02;0.45;;;25.80;64.70;;;;;;4953159;29;20057;-78
2023/07/15 11:32:03;;;;;;;1.27;0.60;;;25.90;64.20;;;;;;4918842;29;20146;-80
2023/07/15 11:34:30;;;;;;;1.52;0.50;;;26.00;63.80;;;;;;4957382;28;20043;-80
2023/07/15 11:37:02;;;;;;;1.00;0.40;;;26.00;63.60;;;;;;4975040;28;20061;-78
2023/07/15 11:39:29;;;;;;;1.05;0.40;;;26.00;63.70;;;;;;4972317;28;20089;-78
2023/07/15 11:41:56;;;;;;;2.00;0.40;;;25.80;63.70;;;;;;4976418;28;20071;-80
2023/07/15 11:44:24;;;;;;;1.63;0.40;;;25.70;63.60;;;;;;4950477;28;20106;-83
2023/07/15 11:46:55;;;;;;;1.17;0.40;;;25.80;63.80;;;;;;4963379;28;20377;-84
2023/07/15 11:49:23;;;;;;;1.73;0.40;;;25.90;63.70;;;;;;4945918;29;20050;-83
2023/07/15 11:51:55;;;;;;;0.45;0.28;;;26.00;63.50;;;;;;4953406;29;20047;-83
2023/07/15 11:54:22;;;;;;;1.70;0.50;;;26.10;63.40;;;;;;4937421;29;20036;-80
2023/07/15 11:56:53;;;;;;;1.30;0.40;;;26.10;63.30;;;;;;4934991;28;20043;-82
2023/07/15 11:59:25;;;;;;;1.27;0.32;;;26.00;63.40;;;;;;4940907;29;20146;-81
2023/07/15 12:02:02;;;;;;;1.03;0.40;;;25.90;63.70;;;;;;4952977;29;20492;-79
2023/07/15 12:04:29;;;;;;;1.10;0.50;;;26.00;63.50;;;;;;4954675;28;20386;-82
2023/07/15 12:06:57;;;;;;;2.45;0.45;;;26.40;63.00;;;;;;4954661;28;20455;-82
2023/07/15 12:09:25;;;;;;;0.73;0.40;;;26.70;62.30;;;;;;4941986;29;20060;-84
2023/07/15 12:11:52;;;;;;;0.85;0.40;;;27.00;61.60;;;;;;4949351;28;20090;-82
2023/07/15 12:14:19;;;;;;;0.80;0.43;;;27.10;61.10;;;;;;4969352;28;20516;-78
2023/07/15 12:16:47;;;;;;;1.08;0.45;;;27.20;61.10;;;;;;4956064;29;20052;-82
2023/07/15 12:19:17;;;;;;;1.10;0.50;;;27.20;61.00;;;;;;4956338;29;20483;-83
2023/07/15 12:21:44;;;;;;;1.48;0.50;;;27.20;61.10;;;;;;4920651;29;20079;-78
2023/07/15 12:24:11;;;;;;;1.38;0.50;;;27.20;61.10;;;;;;4948874;29;20051;-84
2023/07/15 12:26:41;;;;;;;1.48;0.50;;;27.50;59.50;;;;;;4950594;28;20403;-81
2023/07/15 12:29:09;;;;;;;2.20;0.68;;;27.40;59.50;;;;;;4946904;29;20058;-77
2023/07/15 12:31:36;;;;;;;1.48;0.40;;;27.40;59.70;;;;;;4968010;28;20066;-79
2023/07/15 12:34:03;;;;;;;1.00;0.50;;;27.50;59.40;;;;;;4955839;29;20039;-78
2023/07/15 12:36:30;;;;;;;1.27;0.43;;;28.00;58.40;;;;;;4956036;29;20476;-79
2023/07/15 12:38:57;;;;;;;0.93;0.40;;;28.60;57.60;;;;;;4982291;28;20039;-78
2023/07/15 12:41:24;;;;;;;0.90;0.40;;;28.60;57.10;;;;;;4955781;29;20051;-77
2023/07/15 12:43:51;;;;;;;0.75;0.35;;;28.50;57.00;;;;;;4926542;29;20060;-80
2023/07/15 12:46:18;;;;;;;0.95;0.40;;;28.40;57.30;;;;;;4939755;29;20110;-78
2023/07/15 12:48:48;;;;;;;2.42;0.50;;;28.40;57.30;;;;;;4942468;28;20050;-82
2023/07/15 12:51:16;;;;;;;1.15;0.50;;;28.90;56.80;;;;;;4949936;29;20048;-83
2023/07/15 12:53:43;;;;;;;1.85;0.70;;;28.90;56.10;;;;;;4930562;28;20054;-81
2023/07/15 12:56:13;;;;;;;1.90;0.50;;;28.60;56.00;;;;;;4939647;29;20528;-83